createdAt,value
2018-04-10T00:00:04.539Z,10.562
2018-04-10T00:01:03.294Z,10.562
2018-04-10T00:02:03.937Z,10.562
2018-04-10T00:03:04.137Z,10.562
2018-04-10T00:04:03.410Z,10.562
2018-04-10T00:05:03.843Z,10.562
2018-04-10T00:06:03.330Z,10.5
2018-04-10T00:07:03.739Z,10.5
2018-04-10T00:08:03.937Z,10.562
2018-04-10T00:09:04.451Z,10.5
2018-04-10T00:10:03.883Z,10.5
2018-04-10T00:11:04.260Z,10.5
2018-04-10T00:12:04.192Z,10.437
2018-04-10T00:13:03.387Z,10.437
2018-04-10T00:14:03.763Z,10.437
2018-04-10T00:15:03.983Z,10.375
2018-04-10T00:16:03.400Z,10.437
2018-04-10T00:17:04.015Z,10.437
2018-04-10T00:18:03.898Z,10.437
2018-04-10T00:19:04.085Z,10.437
2018-04-10T00:20:03.760Z,10.437
2018-04-10T00:21:04.175Z,10.375
2018-04-10T00:22:03.503Z,10.375
2018-04-10T00:23:03.874Z,10.375
2018-04-10T00:24:03.659Z,10.375
2018-04-10T00:25:03.764Z,10.375
2018-04-10T00:26:04.012Z,10.375
2018-04-10T00:27:03.380Z,10.312
2018-04-10T00:28:03.702Z,10.25
2018-04-10T00:29:03.879Z,10.312
2018-04-10T00:30:04.290Z,10.312
2018-04-10T00:31:03.810Z,10.312
2018-04-10T00:32:04.337Z,10.312
2018-04-10T00:33:03.625Z,10.25
2018-04-10T00:34:03.954Z,10.187
2018-04-10T00:35:03.349Z,10.312
2018-04-10T00:36:03.633Z,10.25
2018-04-10T00:37:03.963Z,10.375
2018-04-10T00:38:03.326Z,10.312
2018-04-10T00:39:04.213Z,10.312
2018-04-10T00:40:03.936Z,10.25
2018-04-10T00:41:03.541Z,10.25
2018-04-10T00:42:03.643Z,10.25
2018-04-10T00:43:03.917Z,10.25
2018-04-10T00:44:04.023Z,10.312
2018-04-10T00:45:03.480Z,10.187
2018-04-10T00:46:03.841Z,10.062
2018-04-10T00:47:04.066Z,10.062
2018-04-10T00:48:03.586Z,10.125
2018-04-10T00:49:03.931Z,10.125
2018-04-10T00:50:03.503Z,10.312
2018-04-10T00:51:03.761Z,10.375
2018-04-10T00:52:03.915Z,10.375
2018-04-10T00:53:03.621Z,10.375
2018-04-10T00:54:03.931Z,10.375
2018-04-10T00:55:04.235Z,10.312
2018-04-10T00:56:03.431Z,10.312
2018-04-10T00:57:04.178Z,10.437
2018-04-10T00:58:03.367Z,10.375
2018-04-10T00:59:03.910Z,10.25
2018-04-10T01:00:04.378Z,10.312
2018-04-10T01:01:03.980Z,10.187
2018-04-10T01:02:03.264Z,10.25
2018-04-10T01:03:03.525Z,10.187
2018-04-10T01:04:03.694Z,10.125
2018-04-10T01:05:03.997Z,10.25
2018-04-10T01:06:04.184Z,10.187
2018-04-10T01:07:03.422Z,10.25
2018-04-10T01:08:03.675Z,10.312
2018-04-10T01:09:04.068Z,10.187
2018-04-10T01:10:03.946Z,10.062
2018-04-10T01:11:04.049Z,10.062
2018-04-10T01:12:03.358Z,10.062
2018-04-10T01:13:03.806Z,10.125
2018-04-10T01:14:03.891Z,10.062
2018-04-10T01:15:04.193Z,10
2018-04-10T01:16:03.351Z,9.937
2018-04-10T01:17:03.761Z,9.937
2018-04-10T01:18:04.110Z,10
2018-04-10T01:19:04.125Z,10
2018-04-10T01:20:03.704Z,10.062
2018-04-10T01:21:03.930Z,10.062
2018-04-10T01:22:04.037Z,10.062
2018-04-10T01:23:03.651Z,10
2018-04-10T01:24:03.956Z,9.937
2018-04-10T01:25:04.527Z,9.875
2018-04-10T01:26:03.787Z,9.875
2018-04-10T01:27:04.116Z,9.875
2018-04-10T01:28:03.418Z,9.812
2018-04-10T01:29:03.472Z,9.812
2018-04-10T01:30:03.925Z,9.812
2018-04-10T01:31:03.529Z,9.75
2018-04-10T01:32:03.805Z,9.75
2018-04-10T01:33:04.061Z,9.687
2018-04-10T01:34:03.367Z,9.562
2018-04-10T01:35:03.607Z,9.625
2018-04-10T01:36:04.079Z,9.625
2018-04-10T01:37:03.580Z,9.687
2018-04-10T01:38:03.870Z,9.687
2018-04-10T01:39:04.404Z,9.625
2018-04-10T01:40:03.920Z,9.5
2018-04-10T01:41:04.219Z,9.562
2018-04-10T01:42:03.578Z,9.562
2018-04-10T01:43:03.825Z,9.5
2018-04-10T01:44:04.099Z,9.5
2018-04-10T01:45:03.749Z,9.562
2018-04-10T01:46:03.934Z,9.562
2018-04-10T01:47:03.248Z,9.562
2018-04-10T01:48:03.673Z,9.562
2018-04-10T01:49:03.975Z,9.562
2018-04-10T01:50:04.022Z,9.562
2018-04-10T01:51:04.284Z,9.625
2018-04-10T01:52:03.560Z,9.562
2018-04-10T01:53:03.892Z,9.5
2018-04-10T01:54:03.417Z,9.562
2018-04-10T01:55:03.587Z,9.562
2018-04-10T01:56:03.754Z,9.562
2018-04-10T01:57:04.034Z,9.5
2018-04-10T01:58:03.301Z,9.5
2018-04-10T01:59:03.649Z,9.625
2018-04-10T02:00:04.172Z,9.625
2018-04-10T02:01:03.506Z,9.625
2018-04-10T02:02:03.918Z,9.625
2018-04-10T02:03:03.533Z,9.562
2018-04-10T02:04:03.771Z,9.5
2018-04-10T02:05:03.375Z,9.5
2018-04-10T02:06:03.305Z,9.437
2018-04-10T02:07:03.648Z,9.437
2018-04-10T02:08:03.986Z,9.375
2018-04-10T02:09:03.678Z,9.375
2018-04-10T02:12:19.368Z,9.375
2018-04-10T02:12:23.339Z,9.375
2018-04-10T02:12:34.998Z,9.437
2018-04-10T02:13:03.892Z,9.437
2018-04-10T02:14:04.134Z,9.375
2018-04-10T02:15:03.579Z,9.375
2018-04-10T02:16:04.059Z,9.375
2018-04-10T02:17:03.603Z,9.375
2018-04-10T02:18:03.948Z,9.375
2018-04-10T02:19:03.217Z,9.375
2018-04-10T02:20:03.644Z,9.437
2018-04-10T02:21:04.031Z,9.437
2018-04-10T02:22:03.378Z,9.437
2018-04-10T02:23:03.687Z,9.437
2018-04-10T02:24:03.976Z,9.437
2018-04-10T02:25:03.353Z,9.437
2018-04-10T02:26:03.606Z,9.437
2018-04-10T02:27:04.084Z,9.437
2018-04-10T02:28:03.731Z,9.5
2018-04-10T02:29:04.049Z,9.437
2018-04-10T02:30:03.293Z,9.375
2018-04-10T02:31:03.677Z,9.312
2018-04-10T02:32:04.041Z,9.437
2018-04-10T02:33:03.619Z,9.437
2018-04-10T02:34:04.015Z,9.437
2018-04-10T02:35:04.058Z,9.437
2018-04-10T02:36:03.955Z,9.437
2018-04-10T02:37:03.302Z,9.437
2018-04-10T02:38:03.618Z,9.375
2018-04-10T02:39:04.272Z,9.437
2018-04-10T02:40:04.339Z,9.437
2018-04-10T02:41:03.901Z,9.375
2018-04-10T02:42:03.956Z,9.375
2018-04-10T02:43:03.254Z,9.375
2018-04-10T02:44:03.541Z,9.5
2018-04-10T02:45:04.060Z,9.5
2018-04-10T02:46:04.439Z,9.437
2018-04-10T02:47:03.487Z,9.312
2018-04-10T02:48:03.847Z,9.375
2018-04-10T02:49:03.309Z,9.312
2018-04-10T02:50:03.607Z,9.437
2018-04-10T02:51:03.965Z,9.375
2018-04-10T02:52:03.813Z,9.5
2018-04-10T02:53:04.190Z,9.437
2018-04-10T02:54:03.552Z,9.5
2018-04-10T02:55:03.929Z,9.562
2018-04-10T02:56:03.517Z,9.5
2018-04-10T02:57:03.822Z,9.5
2018-04-10T02:58:04.100Z,9.5
2018-04-10T02:59:04.290Z,9.437
2018-04-10T03:00:04.471Z,9.437
2018-04-10T03:01:03.955Z,9.375
2018-04-10T03:02:03.412Z,9.312
2018-04-10T03:03:03.703Z,9.25
2018-04-10T03:04:04.167Z,9.187
2018-04-10T03:05:03.596Z,9.25
2018-04-10T03:06:03.912Z,9.187
2018-04-10T03:07:04.235Z,9.187
2018-04-10T03:08:03.472Z,9.125
2018-04-10T03:09:04.202Z,9.187
2018-04-10T03:10:03.980Z,9.25
2018-04-10T03:11:03.357Z,9.187
2018-04-10T03:12:03.645Z,9.25
2018-04-10T03:13:03.855Z,9.312
2018-04-10T03:14:03.298Z,9.375
2018-04-10T03:15:03.990Z,9.375
2018-04-10T03:16:04.020Z,9.5
2018-04-10T03:17:04.065Z,9.437
2018-04-10T03:18:03.268Z,9.437
2018-04-10T03:19:03.525Z,9.375
2018-04-10T03:20:03.957Z,9.437
2018-04-10T03:21:03.345Z,9.437
2018-04-10T03:22:03.883Z,9.375
2018-04-10T03:23:04.113Z,9.312
2018-04-10T03:24:03.623Z,9.312
2018-04-10T03:25:03.758Z,9.312
2018-04-10T03:26:04.094Z,9.312
2018-04-10T03:27:03.458Z,9.375
2018-04-10T03:28:03.764Z,9.437
2018-04-10T03:29:04.160Z,9.437
2018-04-10T03:30:03.576Z,9.437
2018-04-10T03:31:03.949Z,9.437
2018-04-10T03:32:03.646Z,9.437
2018-04-10T03:33:04.055Z,9.5
2018-04-10T03:34:03.399Z,9.562
2018-04-10T03:35:03.741Z,9.625
2018-04-10T03:36:04.011Z,9.562
2018-04-10T03:37:03.413Z,9.562
2018-04-10T03:38:03.771Z,9.625
2018-04-10T03:39:04.407Z,9.687
2018-04-10T03:40:04.104Z,9.625
2018-04-10T03:41:03.355Z,9.562
2018-04-10T03:42:03.690Z,9.687
2018-04-10T03:43:04.081Z,9.562
2018-04-10T03:44:03.450Z,9.625
2018-04-10T03:45:03.813Z,9.625
2018-04-10T03:46:03.358Z,9.75
2018-04-10T03:47:04.483Z,9.75
2018-04-10T03:48:03.591Z,9.687
2018-04-10T03:49:03.950Z,9.687
2018-04-10T03:50:03.286Z,9.625
2018-04-10T03:51:03.533Z,9.5
2018-04-10T03:52:04.699Z,9.5
2018-04-10T03:53:03.903Z,9.5
2018-04-10T03:54:03.323Z,9.562
2018-04-10T03:55:03.738Z,9.5
2018-04-10T03:57:03.782Z,9.437
2018-04-10T03:57:09.009Z,9.5
2018-04-10T03:58:03.913Z,9.375
2018-04-10T03:59:03.321Z,9.5
2018-04-10T04:00:04.074Z,9.437
2018-04-10T04:01:04.377Z,9.437
2018-04-10T04:02:03.574Z,9.5
2018-04-10T04:03:04.043Z,9.437
2018-04-10T04:04:03.481Z,9.437
2018-04-10T04:05:04.073Z,9.5
2018-04-10T04:06:04.186Z,9.562
2018-04-10T04:07:03.507Z,9.562
2018-04-10T04:08:03.858Z,9.5
2018-04-10T04:09:04.165Z,9.687
2018-04-10T04:10:03.929Z,9.687
2018-04-10T04:11:03.518Z,9.625
2018-04-10T04:12:04.164Z,9.5
2018-04-10T04:13:03.561Z,9.625
2018-04-10T04:14:04.044Z,9.625
2018-04-10T04:15:03.525Z,9.562
2018-04-10T04:16:03.762Z,9.5
2018-04-10T04:17:09.309Z,9.5
2018-04-10T04:18:04.092Z,9.5
2018-04-10T04:19:03.483Z,9.437
2018-04-10T04:20:04.471Z,9.375
2018-04-10T04:21:03.594Z,9.437
2018-04-10T04:22:04.054Z,9.437
2018-04-10T04:23:03.538Z,9.562
2018-04-10T04:24:03.960Z,9.562
2018-04-10T04:25:03.881Z,9.625
2018-04-10T04:26:03.584Z,9.687
2018-04-10T04:27:04.059Z,9.625
2018-04-10T04:28:03.522Z,9.625
2018-04-10T04:29:03.815Z,9.75
2018-04-10T04:30:03.380Z,9.75
2018-04-10T04:31:03.809Z,9.687
2018-04-10T04:32:04.170Z,9.812
2018-04-10T04:33:03.722Z,9.812
2018-04-10T04:34:04.097Z,9.812
2018-04-10T04:35:03.913Z,9.875
2018-04-10T04:36:03.204Z,9.875
2018-04-10T04:37:03.367Z,9.875
2018-04-10T04:38:03.978Z,9.937
2018-04-10T04:39:03.946Z,9.937
2018-04-10T04:40:03.504Z,9.937
2018-04-10T04:41:04.172Z,10
2018-04-10T04:42:03.484Z,10.062
2018-04-10T04:43:03.911Z,10.062
2018-04-10T04:44:03.297Z,10.125
2018-04-10T04:45:03.838Z,10.125
2018-04-10T04:46:04.309Z,10.187
2018-04-10T04:47:03.723Z,10.25
2018-04-10T04:48:03.536Z,10.312
2018-04-10T04:49:03.630Z,10.375
2018-04-10T04:50:04.031Z,10.437
2018-04-10T04:51:08.492Z,10.5
2018-04-10T04:52:03.479Z,10.562
2018-04-10T04:53:04.239Z,10.687
2018-04-10T04:54:03.694Z,10.625
2018-04-10T04:55:04.107Z,10.687
2018-04-10T04:56:03.586Z,10.812
2018-04-10T04:57:04.728Z,10.875
2018-04-10T04:58:04.198Z,10.875
2018-04-10T04:59:03.710Z,10.937
2018-04-10T05:00:04.333Z,11
2018-04-10T05:01:04.013Z,11.062
2018-04-10T05:02:03.506Z,11.062
2018-04-10T05:03:04.188Z,11.125
2018-04-10T05:04:03.724Z,11.25
2018-04-10T05:05:04.185Z,11.312
2018-04-10T05:06:03.449Z,11.375
2018-04-10T05:07:03.692Z,11.375
2018-04-10T05:08:03.662Z,11.5
2018-04-10T05:09:04.166Z,11.562
2018-04-10T05:10:03.910Z,11.625
2018-04-10T05:11:03.726Z,11.75
2018-04-10T05:12:04.127Z,11.75
2018-04-10T05:13:03.835Z,11.875
2018-04-10T05:14:03.269Z,11.937
2018-04-10T05:15:03.643Z,12
2018-04-10T05:16:04.111Z,12.062
2018-04-10T05:17:03.909Z,12.187
2018-04-10T05:18:03.513Z,12.25
2018-04-10T05:19:03.406Z,12.375
2018-04-10T05:20:04.229Z,12.375
2018-04-10T05:21:03.314Z,12.5
2018-04-10T05:22:03.739Z,12.562
2018-04-10T05:23:04.120Z,12.625
2018-04-10T05:24:03.716Z,12.75
2018-04-10T05:25:03.988Z,12.812
2018-04-10T05:26:03.639Z,12.875
2018-04-10T05:27:04.320Z,12.937
2018-04-10T05:28:03.625Z,13
2018-04-10T05:29:04.278Z,13.187
2018-04-10T05:30:03.772Z,13.25
2018-04-10T05:31:03.425Z,13.375
2018-04-10T05:32:03.928Z,13.5
2018-04-10T05:33:03.499Z,13.625
2018-04-10T05:34:03.803Z,13.687
2018-04-10T05:35:04.235Z,13.687
2018-04-10T05:36:03.526Z,13.75
2018-04-10T05:37:03.859Z,13.812
2018-04-10T05:38:03.324Z,13.937
2018-04-10T05:39:03.877Z,14.062
2018-04-10T05:40:03.407Z,14.187
2018-04-10T05:41:04.090Z,14.312
2018-04-10T05:42:04.601Z,14.312
2018-04-10T05:43:03.893Z,14.375
2018-04-10T05:44:03.392Z,14.437
2018-04-10T05:45:03.711Z,14.5
2018-04-10T05:46:04.130Z,14.687
2018-04-10T05:47:03.464Z,14.875
2018-04-10T05:48:03.341Z,14.937
2018-04-10T05:49:03.766Z,15
2018-04-10T05:50:04.405Z,15.062
2018-04-10T05:51:03.928Z,15.125
2018-04-10T05:52:03.625Z,15.187
2018-04-10T05:53:03.958Z,15.375
2018-04-10T05:54:03.408Z,15.437
2018-04-10T05:55:03.676Z,15.562
2018-04-10T05:56:04.059Z,15.625
2018-04-10T05:57:04.262Z,15.562
2018-04-10T05:58:03.794Z,15.625
2018-04-10T05:59:03.534Z,15.562
2018-04-10T06:00:04.411Z,15.75
2018-04-10T06:01:04.553Z,15.875
2018-04-10T06:02:03.764Z,16.062
2018-04-10T06:03:04.425Z,16.125
2018-04-10T06:04:03.896Z,16.187
2018-04-10T06:05:03.834Z,16.062
2018-04-10T06:06:03.851Z,16.312
2018-04-10T06:07:03.340Z,16.312
2018-04-10T06:08:03.660Z,16.312
2018-04-10T06:09:04.452Z,16.437
2018-04-10T06:10:04.105Z,16.375
2018-04-10T06:11:03.443Z,16.5
2018-04-10T06:12:03.911Z,16.562
2018-04-10T06:13:03.317Z,16.625
2018-04-10T06:14:03.561Z,16.812
2018-04-10T06:15:03.747Z,16.937
2018-04-10T06:16:04.005Z,17.125
2018-04-10T06:17:04.361Z,17.125
2018-04-10T06:18:03.765Z,17.25
2018-04-10T06:19:04.099Z,17.437
2018-04-10T06:20:03.674Z,17.5
2018-04-10T06:21:04.126Z,17.625
2018-04-10T06:22:04.268Z,17.75
2018-04-10T06:23:03.550Z,17.75
2018-04-10T06:24:03.915Z,17.687
2018-04-10T06:25:03.590Z,17.812
2018-04-10T06:26:04.034Z,18
2018-04-10T06:27:04.281Z,18.062
2018-04-10T06:28:04.212Z,18.062
2018-04-10T06:29:03.501Z,18.125
2018-04-10T06:30:04.346Z,18.25
2018-04-10T06:31:03.984Z,18.437
2018-04-10T06:32:03.517Z,18.562
2018-04-10T06:33:03.743Z,18.75
2018-04-10T06:34:04.046Z,18.75
2018-04-10T06:35:03.441Z,18.812
2018-04-10T06:36:03.721Z,18.875
2018-04-10T06:37:03.537Z,18.937
2018-04-10T06:38:03.676Z,18.875
2018-04-10T06:39:04.698Z,18.75
2018-04-10T06:40:04.175Z,18.812
2018-04-10T06:41:03.612Z,18.937
2018-04-10T06:42:03.815Z,19
2018-04-10T06:43:04.125Z,19.187
2018-04-10T06:44:03.596Z,19.562
2018-04-10T06:45:04.169Z,19.562
2018-04-10T06:46:03.512Z,19.562
2018-04-10T06:47:03.807Z,19.5
2018-04-10T06:48:04.163Z,19.5
2018-04-10T06:49:03.538Z,19.5
2018-04-10T06:50:03.899Z,19.437
2018-04-10T06:51:03.310Z,19.562
2018-04-10T06:52:03.664Z,19.562
2018-04-10T06:53:04.182Z,20
2018-04-10T06:54:03.508Z,20.187
2018-04-10T06:55:03.804Z,20.312
2018-04-10T06:56:03.335Z,20.5
2018-04-10T06:57:03.653Z,20.562
2018-04-10T06:58:03.950Z,20.625
2018-04-10T06:59:03.310Z,20.75
2018-04-10T07:00:04.081Z,20.687
2018-04-10T07:01:03.840Z,20.5
2018-04-10T07:02:04.205Z,20.812
2018-04-10T07:03:03.506Z,20.562
2018-04-10T07:04:03.869Z,20.625
2018-04-10T07:05:03.555Z,20.687
2018-04-10T07:06:03.848Z,20.875
2018-04-10T07:07:03.264Z,21.125
2018-04-10T07:08:03.884Z,21.25
2018-04-10T07:09:04.251Z,21.25
2018-04-10T07:10:03.839Z,21.312
2018-04-10T07:11:04.280Z,21.437
2018-04-10T07:12:03.769Z,21.375
2018-04-10T07:13:03.763Z,21.437
2018-04-10T07:14:04.197Z,21.312
2018-04-10T07:15:03.739Z,21.312
2018-04-10T07:16:03.955Z,21.562
2018-04-10T07:17:03.599Z,21.687
2018-04-10T07:18:04.108Z,21.937
2018-04-10T07:19:03.454Z,21.875
2018-04-10T07:20:04.302Z,21.562
2018-04-10T07:21:03.618Z,21.562
2018-04-10T07:22:04.047Z,21.687
2018-04-10T07:23:03.649Z,22
2018-04-10T07:24:03.682Z,22.312
2018-04-10T07:25:04.125Z,22.562
2018-04-10T07:26:03.821Z,22.625
2018-04-10T07:27:05.077Z,22.75
2018-04-10T07:28:03.637Z,22.5
2018-04-10T07:29:03.976Z,22.5
2018-04-10T07:30:03.471Z,22.312
2018-04-10T07:31:04.036Z,22
2018-04-10T07:32:03.322Z,22.062
2018-04-10T07:33:03.681Z,22.187
2018-04-10T07:34:03.425Z,21.937
2018-04-10T07:35:03.779Z,21.812
2018-04-10T07:36:04.217Z,21.625
2018-04-10T07:37:03.641Z,21.562
2018-04-10T07:38:03.956Z,21.625
2018-04-10T07:39:03.567Z,21.75
2018-04-10T07:40:03.723Z,21.75
2018-04-10T07:41:04.047Z,21.687
2018-04-10T07:42:03.369Z,21.562
2018-04-10T07:43:03.732Z,21.687
2018-04-10T07:44:04.184Z,21.687
2018-04-10T07:45:03.610Z,21.625
2018-04-10T07:46:04.195Z,21.687
2018-04-10T07:47:03.502Z,21.875
2018-04-10T07:48:03.315Z,22
2018-04-10T07:49:03.819Z,21.937
2018-04-10T07:50:04.612Z,22.062
2018-04-10T07:51:03.656Z,21.75
2018-04-10T07:52:03.998Z,21.687
2018-04-10T07:53:03.539Z,22.187
2018-04-10T07:54:03.888Z,22.312
2018-04-10T07:55:04.234Z,22.625
2018-04-10T07:56:03.552Z,22.625
2018-04-10T07:57:03.932Z,22.75
2018-04-10T07:58:03.514Z,22.75
2018-04-10T07:59:03.762Z,22.75
2018-04-10T08:00:04.277Z,22.625
2018-04-10T08:01:03.759Z,22.687
2018-04-10T08:02:04.130Z,22.75
2018-04-10T08:03:03.640Z,23
2018-04-10T08:04:04.002Z,23
2018-04-10T08:05:04.297Z,22.812
2018-04-10T08:06:03.589Z,22.937
2018-04-10T08:07:04.055Z,23.062
2018-04-10T08:08:03.919Z,22.937
2018-04-10T08:09:04.531Z,23.187
2018-04-10T08:10:04.107Z,23.187
2018-04-10T08:11:03.457Z,23
2018-04-10T08:12:03.807Z,22.812
2018-04-10T08:13:04.060Z,23.062
2018-04-10T08:14:03.557Z,23.25
2018-04-10T08:15:04.848Z,23.25
2018-04-10T08:16:04.122Z,23.437
2018-04-10T08:17:03.793Z,23.562
2018-04-10T08:18:03.463Z,23.375
2018-04-10T08:19:03.870Z,23.25
2018-04-10T08:20:03.425Z,23.437
2018-04-10T08:21:03.648Z,23.437
2018-04-10T08:22:04.007Z,23.687
2018-04-10T08:23:03.364Z,23.625
2018-04-10T08:24:03.805Z,23.437
2018-04-10T08:25:04.209Z,23.437
2018-04-10T08:26:03.496Z,23.625
2018-04-10T08:27:03.850Z,23.562
2018-04-10T08:28:04.134Z,23.437
2018-04-10T08:29:03.248Z,23.437
2018-04-10T08:30:03.879Z,23.562
2018-04-10T08:31:03.321Z,24.062
2018-04-10T08:32:03.649Z,24.187
2018-04-10T08:33:04.059Z,24.437
2018-04-10T08:34:03.401Z,24.625
2018-04-10T08:35:03.765Z,24.687
2018-04-10T08:36:04.027Z,24.5
2018-04-10T08:37:03.329Z,24.437
2018-04-10T08:38:03.634Z,24.5
2018-04-10T08:39:04.285Z,24.437
2018-04-10T08:40:04.525Z,24.562
2018-04-10T08:41:03.902Z,24.625
2018-04-10T08:42:04.135Z,24.625
2018-04-10T08:43:04.283Z,24.5
2018-04-10T08:44:03.404Z,24.437
2018-04-10T08:45:03.914Z,24.562
2018-04-10T08:46:04.123Z,24.437
2018-04-10T08:47:03.393Z,24.5
2018-04-10T08:48:03.697Z,24.562
2018-04-10T08:49:03.740Z,24.812
2018-04-10T08:50:03.959Z,24.75
2018-04-10T08:51:03.281Z,25.062
2018-04-10T08:52:03.586Z,25.312
2018-04-10T08:53:03.970Z,25.375
2018-04-10T08:54:03.832Z,25.562
2018-04-10T08:55:04.111Z,25.437
2018-04-10T08:56:03.383Z,25.375
2018-04-10T08:57:04.633Z,25
2018-04-10T08:58:03.591Z,25.125
2018-04-10T08:59:04.001Z,25.25
2018-04-10T09:00:04.748Z,25
2018-04-10T09:01:04.179Z,24.75
2018-04-10T09:02:03.547Z,24.75
2018-04-10T09:03:03.751Z,24.75
2018-04-10T09:04:03.927Z,24.562
2018-04-10T09:06:04.036Z,24.625
2018-04-10T09:07:03.317Z,24.562
2018-04-10T09:08:03.659Z,24.375
2018-04-10T09:09:04.199Z,24.75
2018-04-10T09:10:03.808Z,24.812
2018-04-10T09:11:04.134Z,24.75
2018-04-10T09:12:03.744Z,24.625
2018-04-10T09:13:03.984Z,24.812
2018-04-10T09:14:03.545Z,24.812
2018-04-10T09:15:04.523Z,24.375
2018-04-10T09:16:03.558Z,24.25
2018-04-10T09:17:04.137Z,23.937
2018-04-10T09:18:04.089Z,23.625
2018-04-10T09:19:03.319Z,23.25
2018-04-10T09:20:03.712Z,22.875
2018-04-10T09:21:04.147Z,22.687
2018-04-10T09:22:03.514Z,22.437
2018-04-10T09:23:03.734Z,22.312
2018-04-10T09:24:03.962Z,22.5
2018-04-10T09:25:03.346Z,22.562
2018-04-10T09:26:03.772Z,22.437
2018-04-10T09:27:03.519Z,22.375
2018-04-10T09:28:03.957Z,22.187
2018-04-10T09:29:03.973Z,22.125
2018-04-10T09:30:04.369Z,22
2018-04-10T09:31:03.533Z,22.125
2018-04-10T09:32:03.916Z,22.125
2018-04-10T09:33:04.195Z,22.187
2018-04-10T09:34:03.591Z,22.437
2018-04-10T09:35:03.972Z,22.687
2018-04-10T09:36:03.470Z,22.75
2018-04-10T09:37:03.726Z,22.75
2018-04-10T09:38:04.021Z,22.625
2018-04-10T09:39:03.767Z,22.562
2018-04-10T09:40:03.558Z,22.562
2018-04-10T09:41:03.870Z,22.687
2018-04-10T09:42:04.124Z,23.062
2018-04-10T09:43:03.410Z,23.312
2018-04-10T09:44:03.696Z,23.812
2018-04-10T09:45:04.180Z,24.062
2018-04-10T09:46:03.527Z,24.25
2018-04-10T09:47:03.815Z,24.5
2018-04-10T09:48:04.099Z,24.437
2018-04-10T09:49:03.402Z,24.312
2018-04-10T09:50:03.657Z,24.312
2018-04-10T09:51:04.068Z,24.5
2018-04-10T09:52:03.573Z,24.687
2018-04-10T09:54:04.103Z,24.937
2018-04-10T09:55:03.358Z,24.812
2018-04-10T09:56:03.716Z,24.937
2018-04-10T09:57:04.156Z,25.062
2018-04-10T09:58:03.382Z,25.062
2018-04-10T09:59:03.847Z,24.937
2018-04-10T10:00:04.268Z,25.187
2018-04-10T10:01:03.721Z,25.25
2018-04-10T10:02:04.279Z,25.25
2018-04-10T10:03:03.720Z,24.875
2018-04-10T10:04:03.885Z,24.75
2018-04-10T10:05:04.230Z,24.625
2018-04-10T10:06:03.841Z,24.625
2018-04-10T10:07:04.227Z,24.687
2018-04-10T10:08:03.585Z,24.937
2018-04-10T10:09:04.151Z,24.687
2018-04-10T10:10:04.450Z,24.75
2018-04-10T10:11:03.634Z,24.812
2018-04-10T10:12:04.036Z,25.125
2018-04-10T10:13:03.442Z,25.187
2018-04-10T10:14:03.746Z,25.062
2018-04-10T10:15:04.140Z,25.375
2018-04-10T10:16:03.419Z,25.125
2018-04-10T10:17:04.051Z,24.812
2018-04-10T10:18:03.621Z,24.875
2018-04-10T10:19:03.939Z,25.062
2018-04-10T10:20:03.272Z,25.125
2018-04-10T10:21:03.533Z,24.937
2018-04-10T10:22:03.901Z,24.937
2018-04-10T10:23:05.153Z,24.937
2018-04-10T10:24:03.450Z,25
2018-04-10T10:25:03.914Z,25.125
2018-04-10T10:26:03.277Z,25.187
2018-04-10T10:27:03.792Z,25.062
2018-04-10T10:28:03.478Z,25.062
2018-04-10T10:29:03.723Z,24.875
2018-04-10T10:30:04.095Z,25.125
2018-04-10T10:31:03.277Z,25.125
2018-04-10T10:32:03.547Z,25
2018-04-10T10:33:04.076Z,24.937
2018-04-10T10:34:04.378Z,24.875
2018-04-10T10:35:03.822Z,25
2018-04-10T10:36:04.510Z,25.125
2018-04-10T10:37:03.628Z,25.312
2018-04-10T10:38:03.901Z,25.5
2018-04-10T10:39:03.660Z,25.312
2018-04-10T10:40:04.214Z,25.25
2018-04-10T10:41:03.555Z,25.437
2018-04-10T10:42:04.206Z,25.25
2018-04-10T10:43:03.845Z,25.312
2018-04-10T10:44:04.184Z,25.312
2018-04-10T10:45:03.987Z,25.437
2018-04-10T10:46:04.105Z,25.437
2018-04-10T10:47:03.462Z,25.25
2018-04-10T10:48:03.772Z,25.187
2018-04-10T10:49:04.106Z,24.812
2018-04-10T10:50:03.696Z,25.062
2018-04-10T10:51:03.560Z,25.125
2018-04-10T10:52:03.849Z,25.062
2018-04-10T10:53:04.205Z,25.187
2018-04-10T10:54:03.392Z,25.312
2018-04-10T10:55:03.675Z,25.5
2018-04-10T10:56:04.039Z,25.562
2018-04-10T10:57:03.875Z,25.437
2018-04-10T10:58:03.211Z,25.25
2018-04-10T10:59:03.462Z,25.125
2018-04-10T11:00:03.947Z,25
2018-04-10T11:01:04.801Z,25
2018-04-10T11:02:04.091Z,24.937
2018-04-10T11:03:03.514Z,24.875
2018-04-10T11:04:03.831Z,24.937
2018-04-10T11:05:03.586Z,25.187
2018-04-10T11:06:03.761Z,25.375
2018-04-10T11:07:03.983Z,25.437
2018-04-10T11:08:03.387Z,25.25
2018-04-10T11:09:04.184Z,25.25
2018-04-10T11:10:03.617Z,25.375
2018-04-10T11:11:03.854Z,24.937
2018-04-10T11:12:03.364Z,24.937
2018-04-10T11:13:03.697Z,24.812
2018-04-10T11:14:03.611Z,24.812
2018-04-10T11:15:04.037Z,24.625
2018-04-10T11:16:03.377Z,24.562
2018-04-10T11:17:03.862Z,24.625
2018-04-10T11:18:03.341Z,24.812
2018-04-10T11:19:03.778Z,24.812
2018-04-10T11:20:04.138Z,24.687
2018-04-10T11:21:03.617Z,24.75
2018-04-10T11:22:04.130Z,24.937
2018-04-10T11:23:03.393Z,24.812
2018-04-10T11:24:03.601Z,24.812
2018-04-10T11:25:03.885Z,24.625
2018-04-10T11:26:03.226Z,24.687
2018-04-10T11:27:03.617Z,24.75
2018-04-10T11:28:03.732Z,24.875
2018-04-10T11:29:04.020Z,24.812
2018-04-10T11:30:03.444Z,24.875
2018-04-10T11:31:03.716Z,24.937
2018-04-10T11:32:04.037Z,24.937
2018-04-10T11:33:03.512Z,25
2018-04-10T11:34:03.812Z,25
2018-04-10T11:35:04.029Z,25.062
2018-04-10T11:36:03.348Z,24.875
2018-04-10T11:37:03.618Z,24.75
2018-04-10T11:38:04.150Z,24.812
2018-04-10T11:39:03.743Z,24.75
2018-04-10T11:40:03.324Z,24.687
2018-04-10T11:41:03.605Z,24.687
2018-04-10T11:42:03.883Z,24.687
2018-04-10T11:43:03.274Z,24.687
2018-04-10T11:44:03.635Z,24.687
2018-04-10T11:45:04.234Z,24.5
2018-04-10T11:46:03.596Z,24.562
2018-04-10T11:47:03.657Z,24.562
2018-04-10T11:48:04.251Z,24.562
2018-04-10T11:49:03.574Z,24.375
2018-04-10T11:50:04.095Z,24.375
2018-04-10T11:51:03.988Z,24.375
2018-04-10T11:52:03.341Z,24.187
2018-04-10T11:53:03.662Z,24.25
2018-04-10T11:54:03.928Z,24.312
2018-04-10T11:55:03.425Z,24.437
2018-04-10T11:56:03.795Z,24.375
2018-04-10T11:57:04.297Z,24.5
2018-04-10T11:58:03.609Z,24.437
2018-04-10T11:59:03.664Z,24.437
2018-04-10T12:00:04.527Z,24.312
2018-04-10T12:01:04.165Z,24.312
2018-04-10T12:02:03.603Z,24.312
2018-04-10T12:03:04.241Z,24.375
2018-04-10T12:04:03.480Z,24.437
2018-04-10T12:05:03.789Z,24.375
2018-04-10T12:06:04.148Z,24.312
2018-04-10T12:07:03.505Z,24.312
2018-04-10T12:08:03.782Z,24.437
2018-04-10T12:09:04.047Z,24.5
2018-04-10T12:10:03.949Z,24.5
2018-04-10T12:11:04.388Z,24.562
2018-04-10T12:12:03.967Z,24.625
2018-04-10T12:13:03.439Z,24.625
2018-04-10T12:14:03.939Z,24.687
2018-04-10T12:15:03.633Z,24.562
2018-04-10T12:16:03.445Z,24.562
2018-04-10T12:17:03.886Z,24.562
2018-04-10T12:18:03.886Z,24.562
2018-04-10T12:19:04.135Z,24.437
2018-04-10T12:20:03.968Z,24.375
2018-04-10T12:21:03.368Z,24.312
2018-04-10T12:22:03.722Z,24.25
2018-04-10T12:23:04.038Z,24.25
2018-04-10T12:24:03.514Z,24.187
2018-04-10T12:25:03.717Z,24.187
2018-04-10T12:26:04.111Z,24.062
2018-04-10T12:27:03.316Z,24.125
2018-04-10T12:28:03.641Z,24.187
2018-04-10T12:29:03.939Z,24.25
2018-04-10T12:30:04.360Z,24.187
2018-04-10T12:31:03.797Z,24.187
2018-04-10T12:32:03.976Z,24.187
2018-04-10T12:33:03.366Z,24.187
2018-04-10T12:34:03.695Z,24.25
2018-04-10T12:35:03.996Z,24.312
2018-04-10T12:36:03.210Z,24.187
2018-04-10T12:37:03.988Z,24.187
2018-04-10T12:38:03.359Z,24.062
2018-04-10T12:39:04.020Z,24
2018-04-10T12:40:03.650Z,24
2018-04-10T12:41:03.436Z,23.937
2018-04-10T12:42:03.704Z,23.812
2018-04-10T12:43:03.603Z,23.937
2018-04-10T12:44:03.894Z,23.812
2018-04-10T12:45:03.997Z,23.812
2018-04-10T12:46:03.243Z,23.875
2018-04-10T12:47:03.601Z,24